KMTH/MTH METAR and TAF weather

Enter ICAO airport designator
Station Type Date Time Source
KMTH METAR 2021/01/20 21:53 UTC NOAA

KMTH 202153Z AUTO 03006KT 10SM CLR 21/16 A3017 RMK AO2 SLP216 T02110156


Station Type Date Time Source
KMTH Decoded METAR 2021/01/20 21:53 UTC NOAA

MARATHON AIRPORT, FL, United States (KMTH) 24-44N 81-03W 2M
Jan 20, 2021 - 04:53 PM EST / 2021.01.20 2153 UTC
Wind: from the NNE (030 degrees) at 7 MPH (6 KT):0
Visibility: 10 mile(s):0
Sky conditions: clear
Temperature: 70.0 F (21.1 C)
Dew Point: 60.1 F (15.6 C)
Relative Humidity: 70%
Pressure (altimeter): 30.17 in. Hg (1021 hPa)
ob: KMTH 202153Z AUTO 03006KT 10SM CLR 21/16 A3017 RMK AO2 SLP216 T02110156
cycle: 22

Station Type Date Time Source
KMTH TAF 2021/01/20 18:59 UTC NOAA

TAF KMTH 201759Z 2018/2118 04009KT P6SM SKC
FM211500 07009KT P6SM SKC

Example: see airport list